Latest Coastal Weather Observations for Red Rocks Point

IDW60701

Issued at 10:03 am WST Thursday 29 June 2017 (issued every 10 minutes, with the page automatically refreshed every 10 minutes)

About coastal observations | Map of coastal stations | Coastal observations for WA | Marine services | Other Formats
Station Details ID: 011053 Name: RED ROCKS POINT Lat: -32.20 Lon: 127.53 Height: 3.1 m
Data from the previous 72 hours. | See also: Recent months at Red Rocks Point
Date/Time
WST
Temp
°C
Wind Pressure Rain since
9am
mm
Weather Cloud Vis
km
Sea
Height
m
Swell
Dir  Spd
kts
Gust
kts
hPa Trend Height
m
Period
s
Dir
29/10:00am 14.5 E 7 9 1036.0 - 0.0 - - - - - - -
29/09:30am 14.3 ESE 8 9 1036.0 - 0.0 - - - - - - -
29/09:00am 14.2 ESE 7 11 1036.0 - 0.0 - - - - - - -
29/08:30am 14.1 SE 3 9 1035.7 - 0.0 - - - - - - -
29/08:00am 13.8 S 6 8 1035.4 - 0.0 - - - - - - -
29/07:30am 13.2 S 5 8 1035.3 - 0.0 - - - - - - -
29/07:00am 13.3 S 5 10 1035.0 - 0.0 - - - - - - -
29/06:30am 13.3 ESE 6 10 1034.8 - 0.0 - - - - - - -
29/06:00am 12.9 S 5 8 1034.6 - 0.0 - - - - - - -
29/05:30am 13.2 SE 5 9 1034.3 - 0.0 - - - - - - -
29/05:00am 13.0 CALM 0 4 1034.1 - 0.0 - - - - - - -
29/04:30am 13.6 SE 9 11 1033.9 - 0.0 - - - - - - -
29/04:00am 13.5 SSE 9 12 1033.8 - 0.0 - - - - - - -
29/03:30am 13.6 SSE 4 7 1034.1 - 0.0 - - - - - - -
29/03:00am 13.7 SE 7 10 1034.2 - 0.0 - - - - - - -
29/02:30am 13.3 S 3 5 1034.2 - 0.0 - - - - - - -
29/02:00am 13.6 ESE 7 9 1034.3 - 0.0 - - - - - - -
29/01:30am 13.3 SSW 6 11 1034.3 - 0.0 - - - - - - -
29/01:00am 13.5 SE 8 12 1034.3 - 0.0 - - - - - - -
29/12:30am 13.8 SSE 10 15 1034.2 - 0.0 - - - - - - -
29/12:00am 14.1 SE 14 16 1034.0 - 0.0 - - - - - - -
 
Date/Time
WST
Temp
°C
Wind Pressure Rain since
9am
mm
Weather Cloud Vis
km
Sea
Height
m
Swell
Dir  Spd
kts
Gust
kts
hPa Trend Height
m
Period
s
Dir
28/11:30pm 14.1 SE 10 13 1034.2 - 0.0 - - - - - - -
28/11:00pm 14.0 ESE 12 17 1034.4 - 0.0 - - - - - - -
28/10:30pm 14.0 ESE 12 16 1034.3 - 0.0 - - - - - - -
28/10:00pm 14.0 SE 15 17 1034.3 - 0.0 - - - - - - -
28/09:30pm 14.2 SE 15 19 1034.2 - 0.0 - - - - - - -
28/09:00pm 14.3 SSE 13 15 1034.0 - 0.0 - - - - - - -
28/08:30pm 14.2 SSE 11 15 1034.0 - 0.0 - - - - - - -
28/08:00pm 14.2 SSE 13 16 1033.9 - 0.0 - - - - - - -
28/07:30pm 14.0 SSE 13 17 1033.9 - 0.0 - - - - - - -
28/07:00pm 14.3 SSE 15 18 1033.9 - 0.0 - - - - - - -
28/06:30pm 14.4 SSE 16 21 1033.8 - 0.0 - - - - - - -
28/06:00pm 14.3 SE 10 15 1033.4 - 0.0 - - - - - - -
28/05:30pm 14.3 SSE 13 15 1033.1 - 0.0 - - - - - - -
28/05:00pm 13.7 S 10 13 1032.9 - 0.0 - - - - - - -
28/04:30pm 14.1 SSE 12 15 1032.9 - 0.0 - - - - - - -
28/04:00pm 14.5 SSE 12 16 1032.6 - 0.0 - - - - - - -
28/03:30pm 14.5 SSE 13 18 1032.4 - 0.0 - - - - - - -
28/03:00pm 14.3 S 16 21 1032.1 - 0.0 - - - - - - -
28/02:30pm 14.8 S 17 21 1031.8 - 0.0 - - - - - - -
28/02:00pm 14.7 S 15 18 1031.5 - 0.0 - - - - - - -
28/01:30pm 15.2 S 16 19 1031.3 - 0.0 - - - - - - -
28/01:00pm 15.5 SSE 10 16 1031.2 - 0.0 - - - - - - -
28/12:30pm 15.7 SSE 12 15 1031.3 - 0.0 - - - - - - -
28/12:00pm 14.9 SSE 16 20 1031.5 - 0.0 - - - - - - -
28/11:30am 15.1 SSE 18 23 1031.7 - 0.0 - - - - - - -
28/11:00am 15.1 SSE 17 23 1031.8 - 0.0 - - - - - - -
28/10:30am 14.8 SSE 14 18 1032.0 - 0.0 - - - - - - -
28/10:00am 15.2 SSE 17 21 1032.0 - 0.0 - - - - - - -
28/09:30am 14.7 S 15 19 1031.7 - 0.0 - - - - - - -
28/09:00am 14.7 S 16 21 1031.5 - 2.8 - - - - - - -
28/08:30am 14.7 S 19 24 1031.0 - 2.8 - - - - - - -
28/08:00am 14.2 S 19 22 1030.6 - 2.8 - - - - - - -
28/07:30am 13.7 S 21 24 1030.2 - 2.8 - - - - - - -
28/07:00am 14.1 S 21 27 1029.7 - 2.8 - - - - - - -
28/06:30am 14.3 SSE 19 23 1029.2 - 2.8 - - - - - - -
28/06:00am 13.5 S 18 21 1028.8 - 2.8 - - - - - - -
28/05:30am 13.3 SSE 18 21 1028.4 - 2.8 - - - - - - -
28/05:00am 13.4 SSE 19 23 1028.1 - 2.8 - - - - - - -
28/04:30am 12.7 S 21 25 1028.1 - 2.8 - - - - - - -
28/04:00am 13.1 S 13 19 1027.8 - 2.2 - - - - - - -
28/03:30am 13.0 SW 10 13 1027.6 - 1.4 - - - - - - -
28/03:00am 13.8 S 14 17 1027.4 - 1.4 - - - - - - -
28/02:30am 13.7 S 13 19 1027.4 - 1.4 - - - - - - -
28/02:00am 13.5 S 10 12 1027.5 - 1.4 - - - - - - -
28/01:30am 13.6 SSW 12 17 1027.4 - 1.4 - - - - - - -
28/01:00am 13.6 S 14 17 1027.5 - 1.4 - - - - - - -
28/12:30am 13.9 S 13 16 1027.3 - 1.4 - - - - - - -
28/12:00am 14.1 S 14 19 1027.3 - 1.4 - - - - - - -
 
Date/Time
WST
Temp
°C
Wind Pressure Rain since
9am
mm
Weather Cloud Vis
km
Sea
Height
m
Swell
Dir  Spd
kts
Gust
kts
hPa Trend Height
m
Period
s
Dir
27/11:30pm 13.9 S 12 15 1027.4 - 1.4 - - - - - - -
27/11:00pm 13.9 S 13 16 1027.5 - 1.4 - - - - - - -
27/10:30pm 14.3 S 15 17 1027.4 - 1.4 - - - - - - -
27/10:00pm 14.3 S 15 17 1027.4 - 1.4 - - - - - - -
27/09:30pm 14.1 S 16 19 1027.3 - 1.4 - - - - - - -
27/09:00pm 14.3 S 17 20 1027.2 - 1.4 - - - - - - -
27/08:30pm 14.4 S 15 17 1027.1 - 1.4 - - - - - - -
27/08:00pm 14.1 S 17 20 1026.8 - 1.4 - - - - - - -
27/07:30pm 14.3 S 18 23 1026.6 - 1.4 - - - - - - -
27/07:00pm 14.2 S 18 22 1026.2 - 1.4 - - - - - - -
27/06:30pm 14.2 S 16 19 1025.9 - 1.4 - - - - - - -
27/06:00pm 14.2 S 17 21 1025.6 - 1.4 - - - - - - -
27/05:30pm 14.4 S 16 22 1025.2 - 1.4 - - - - - - -
27/05:00pm 14.4 SSW 15 20 1025.1 - 1.4 - - - - - - -
27/04:30pm 14.3 SSW 13 17 1024.8 - 1.4 - - - - - - -
27/04:00pm 14.2 SSW 12 17 1024.5 - 1.4 - - - - - - -
27/03:30pm 14.2 SW 10 14 1024.4 - 1.4 - - - - - - -
27/03:00pm 14.8 SSW 9 13 1024.2 - 1.4 - - - - - - -
27/02:30pm 14.9 SW 8 11 1024.0 - 1.4 - - - - - - -
27/02:00pm 14.6 WSW 9 13 1023.8 - 1.4 - - - - - - -
27/01:30pm 13.1 W 6 9 1023.8 - 1.4 - - - - - - -
27/01:00pm 13.8 W 9 13 1023.8 - 1.4 - - - - - - -
27/12:30pm 13.1 W 7 11 1024.1 - 1.4 - - - - - - -
27/12:00pm 13.5 WSW 6 9 1024.6 - 0.4 Rain - - - - - -
27/11:30am 14.5 WSW 10 14 1024.8 - 0.2 - - - - - - -
27/11:00am 13.5 WSW 8 12 1025.2 - 0.2 - - - - - - -
27/10:30am 13.3 W 9 15 1025.6 - 0.0 - - - - - - -
27/10:00am 12.3 WNW 9 12 1025.9 - 0.0 - - - - - - -
27/09:30am 11.8 NW 6 8 1026.1 - 0.0 - - - - - - -
27/09:00am 11.5 NW 7 9 1025.9 - 3.0 Recent precip. - - - - - -
27/08:30am 10.5 NW 6 9 1025.9 - 3.0 - - - - - - -
27/08:00am 10.3 NNW 6 11 1025.8 - 2.8 - - - - - - -
27/07:30am 10.1 NW 7 9 1025.6 - 2.4 - - - - - - -
27/07:00am 10.2 WNW 8 11 1025.2 - 1.2 - - - - - - -
27/06:30am 9.8 WNW 7 10 1024.8 - 0.2 - - - - - - -
27/06:00am 9.3 WNW 8 11 1024.5 - 0.0 - - - - - - -
27/05:30am 9.3 WNW 6 8 1024.2 - 0.0 - - - - - - -
27/05:00am 9.0 WNW 7 10 1024.0 - 0.0 - - - - - - -
27/04:30am 8.8 WNW 7 9 1023.8 - 0.0 - - - - - - -
27/04:00am 9.6 WNW 7 9 1023.7 - 0.0 - - - - - - -
27/03:30am 10.4 WNW 5 9 1023.7 - 0.0 - - - - - - -
27/03:00am 10.3 W 8 12 1023.9 - 0.0 - - - - - - -
27/02:30am 8.6 WNW 7 9 1024.0 - 0.0 - - - - - - -
27/02:00am 7.9 WNW 8 11 1024.0 - 0.0 - - - - - - -
27/01:30am 7.8 WNW 9 10 1023.9 - 0.0 - - - - - - -
27/01:00am 8.8 WNW 7 8 1024.0 - 0.0 - - - - - - -
27/12:30am 8.9 WNW 7 8 1024.0 - 0.0 - - - - - - -
27/12:00am 8.8 WNW 8 9 1024.1 - 0.0 - - - - - - -
 
Date/Time
WST
Temp
°C
Wind Pressure Rain since
9am
mm
Weather Cloud Vis
km
Sea
Height
m
Swell
Dir  Spd
kts
Gust
kts
hPa Trend Height
m
Period
s
Dir
26/11:30pm 8.9 WNW 9 10 1024.1 - 0.0 - - - - - - -
26/11:00pm 8.7 WNW 8 9 1024.4 - 0.0 - - - - - - -
26/10:30pm 8.6 WNW 9 11 1024.6 - 0.0 - - - - - - -
26/10:00pm 8.8 WNW 10 11 1024.7 - 0.0 - - - - - - -
26/09:30pm 9.4 WNW 6 7 1024.6 - 0.0 - - - - - - -
26/09:00pm 9.2 WNW 4 7 1024.5 - 0.0 - - - - - - -
26/08:30pm 8.7 CALM 0 0 1024.6 - 0.0 - - - - - - -
26/08:00pm 7.8 CALM 0 0 1024.6 - 0.0 - - - - - - -
26/07:30pm 7.8 CALM 0 0 1024.7 - 0.0 - - - - - - -
26/07:00pm 8.3 CALM 0 0 1024.6 - 0.0 - - - - - - -
26/06:30pm 8.9 SSW 3 3 1024.5 - 0.0 - - - - - - -
26/06:00pm 10.5 SSW 4 5 1024.4 - 0.0 - - - - - - -
26/05:30pm 11.6 SSW 5 6 1024.2 - 0.0 - - - - - - -
26/05:00pm 12.9 SW 6 7 1024.0 - 0.0 - - - - - - -
26/04:30pm 13.8 SSW 4 5 1024.0 - 0.0 - - - - - - -
26/04:00pm 14.1 CALM 0 0 1024.0 - 0.0 - - - - - - -
26/03:30pm 14.4 CALM 0 0 1024.1 - 0.0 - - - - - - -
26/03:00pm 14.4 CALM 0 0 1024.3 - 0.0 - - - - - - -
26/02:30pm 14.6 SSW 3 5 1024.2 - 0.0 - - - - - - -
26/02:00pm 14.8 S 5 7 1024.1 - 0.0 - - - - - - -
26/01:30pm 15.3 S 6 7 1024.2 - 0.0 - - - - - - -
26/01:00pm 15.7 SW 7 10 1024.3 - 0.0 - - - - - - -
26/12:30pm 15.7 SW 6 8 1024.5 - 0.0 - - - - - - -
26/12:00pm 15.6 SW 7 10 1024.9 - 0.0 - - - - - - -
26/11:30am 15.9 SW 8 11 1025.4 - 0.0 - - - - - - -
26/11:00am 14.8 SW 7 10 1025.7 - 0.0 - - - - - - -
26/10:30am 15.7 SW 8 9 1026.0 - 0.0 - - - - - - -

Other Formats:

Comma delimited format used in spreadsheet applications
http://www.bom.gov.au/fwo/IDW60701/IDW60701.94644.axf

JavaScript Object Notation format (JSON) in row-major order
http://www.bom.gov.au/fwo/IDW60701/IDW60701.94644.json